createdAt,value
2019-06-15T00:00:12.753Z,22.76
2019-06-15T00:02:42.198Z,22.84
2019-06-15T00:05:11.736Z,22.96
2019-06-15T00:07:41.197Z,23.08
2019-06-15T00:10:10.963Z,23.13
2019-06-15T00:12:40.411Z,23.19
2019-06-15T00:15:09.915Z,23.25
2019-06-15T00:17:39.375Z,23.30
2019-06-15T00:20:09.885Z,23.30
2019-06-15T00:22:39.340Z,23.23
2019-06-15T00:25:09.133Z,23.20
2019-06-15T00:27:38.593Z,23.27
2019-06-15T00:30:10.742Z,23.19
2019-06-15T00:32:40.209Z,23.05
2019-06-15T00:35:10.217Z,22.97
2019-06-15T00:37:39.650Z,22.94
2019-06-15T00:40:09.922Z,22.59
2019-06-15T00:42:39.434Z,22.41
2019-06-15T00:45:09.142Z,22.27
2019-06-15T00:47:38.646Z,22.40
2019-06-15T00:50:08.723Z,22.40
2019-06-15T00:52:38.185Z,22.47
2019-06-15T00:55:08.465Z,22.55
2019-06-15T00:57:38.600Z,22.55
2019-06-15T01:00:09.138Z,22.07
2019-06-15T01:02:38.748Z,22.01
2019-06-15T01:05:08.413Z,22.14
2019-06-15T01:07:37.852Z,22.14
2019-06-15T01:10:08.827Z,22.07
2019-06-15T01:12:38.426Z,22.10
2019-06-15T01:15:08.475Z,22.20
2019-06-15T01:22:37.773Z,22.26
2019-06-15T01:25:10.632Z,22.09
2019-06-15T01:27:40.966Z,22.04
2019-06-15T01:30:11.776Z,22.00
2019-06-15T01:32:41.311Z,21.99
2019-06-15T01:35:11.489Z,22.03
2019-06-15T01:37:40.943Z,22.03
2019-06-15T01:40:11.100Z,21.94
2019-06-15T01:42:40.581Z,22.05
2019-06-15T01:45:10.180Z,22.11
2019-06-15T01:47:39.635Z,22.18
2019-06-15T01:50:10.222Z,22.24
2019-06-15T01:52:39.759Z,22.11
2019-06-15T01:55:20.418Z,22.15
2019-06-15T01:57:40.685Z,22.24
2019-06-15T02:00:19.037Z,22.29
2019-06-15T02:02:48.513Z,22.27
2019-06-15T02:05:18.984Z,22.35
2019-06-15T02:07:48.431Z,22.36
2019-06-15T02:10:20.009Z,22.36
2019-06-15T02:12:49.457Z,22.15
2019-06-15T02:15:18.971Z,22.16
2019-06-15T02:17:48.437Z,22.16
2019-06-15T02:20:18.281Z,22.19
2019-06-15T02:22:47.745Z,22.11
2019-06-15T02:25:35.352Z,22.03
2019-06-15T02:27:55.755Z,22.07
2019-06-15T02:30:29.592Z,21.99
2019-06-15T02:32:59.470Z,21.92
2019-06-15T02:35:29.132Z,21.82
2019-06-15T02:37:58.645Z,21.42
2019-06-15T02:40:28.165Z,21.48
2019-06-15T02:45:26.477Z,21.56
2019-06-15T02:47:55.992Z,21.58
2019-06-15T02:50:25.653Z,21.67
2019-06-15T02:52:55.151Z,21.68
2019-06-15T02:55:24.643Z,21.66
2019-06-15T02:57:54.295Z,21.65
2019-06-15T03:00:34.023Z,21.68
2019-06-15T03:03:03.672Z,21.43
2019-06-15T03:05:33.170Z,21.39
2019-06-15T03:08:02.700Z,21.28
2019-06-15T03:10:32.719Z,21.38
2019-06-15T03:13:02.999Z,21.46
2019-06-15T03:15:32.534Z,21.49
2019-06-15T03:18:01.980Z,21.51
2019-06-15T03:20:31.441Z,21.48
2019-06-15T03:23:00.897Z,21.51
2019-06-15T03:25:30.342Z,21.48
2019-06-15T03:27:59.900Z,21.35
2019-06-15T03:30:29.430Z,21.25
2019-06-15T03:32:58.930Z,21.25
2019-06-15T03:35:28.433Z,21.21
2019-06-15T03:37:57.888Z,21.13
2019-06-15T03:40:27.337Z,21.15
2019-06-15T03:42:56.794Z,21.16
2019-06-15T03:45:26.240Z,21.17
2019-06-15T03:47:55.769Z,21.22
2019-06-15T03:50:25.231Z,21.25
2019-06-15T03:52:54.743Z,21.27
2019-06-15T03:55:24.191Z,21.26
2019-06-15T03:57:53.645Z,21.18
2019-06-15T04:00:33.481Z,21.12
2019-06-15T04:03:02.959Z,21.19
2019-06-15T04:05:32.435Z,21.09
2019-06-15T04:08:01.874Z,21.12
2019-06-15T04:10:31.348Z,21.17
2019-06-15T04:13:00.792Z,21.24
2019-06-15T04:15:30.918Z,21.25
2019-06-15T04:18:00.365Z,21.29
2019-06-15T04:20:30.651Z,21.49
2019-06-15T04:23:00.113Z,21.55
2019-06-15T04:25:29.561Z,21.79
2019-06-15T04:27:59.013Z,22.02
2019-06-15T04:30:28.457Z,22.26
2019-06-15T04:32:58.183Z,22.41
2019-06-15T04:35:27.716Z,22.54
2019-06-15T04:37:57.157Z,22.66
2019-06-15T04:40:26.609Z,22.79
2019-06-15T04:42:56.068Z,22.93
2019-06-15T04:45:25.524Z,23.01
2019-06-15T04:47:54.981Z,23.12
2019-06-15T04:50:24.431Z,23.25
2019-06-15T04:52:53.867Z,22.69
2019-06-15T04:55:23.596Z,22.87
2019-06-15T04:57:53.063Z,23.06
2019-06-15T05:00:22.874Z,23.24
2019-06-15T05:02:52.347Z,23.38
2019-06-15T05:05:21.813Z,23.63
2019-06-15T05:07:51.272Z,23.76
2019-06-15T05:10:20.787Z,23.68
2019-06-15T05:12:50.234Z,23.99
2019-06-15T05:15:19.834Z,24.29
2019-06-15T05:17:49.289Z,24.56
2019-06-15T05:20:18.817Z,24.83
2019-06-15T05:22:48.275Z,25.05
2019-06-15T05:25:17.712Z,25.12
2019-06-15T05:27:47.169Z,25.11
2019-06-15T05:30:16.752Z,25.12
2019-06-15T05:32:46.237Z,25.15
2019-06-15T05:35:15.820Z,25.06
2019-06-15T05:37:45.284Z,24.93
2019-06-15T05:40:14.876Z,24.82
2019-06-15T05:42:44.328Z,24.71
2019-06-15T05:45:15.411Z,24.60
2019-06-15T05:47:44.927Z,24.65
2019-06-15T05:50:14.514Z,24.55
2019-06-15T05:52:44.356Z,24.65
2019-06-15T05:55:15.803Z,24.65
2019-06-15T05:57:45.266Z,24.63
2019-06-15T06:00:15.465Z,24.61
2019-06-15T06:02:44.966Z,24.54
2019-06-15T06:05:14.854Z,24.45
2019-06-15T06:07:44.323Z,24.30
2019-06-15T06:10:14.307Z,24.07
2019-06-15T06:12:43.748Z,23.75
2019-06-15T06:15:13.794Z,23.61
2019-06-15T06:17:43.266Z,23.71
2019-06-15T06:20:13.339Z,23.76
2019-06-15T06:22:42.786Z,23.60
2019-06-15T06:25:12.977Z,23.81
2019-06-15T06:27:42.437Z,24.08
2019-06-15T06:30:12.790Z,24.08
2019-06-15T06:32:42.252Z,24.28
2019-06-15T06:35:11.947Z,24.42
2019-06-15T06:37:41.390Z,24.62
2019-06-15T06:40:12.391Z,24.83
2019-06-15T06:42:41.848Z,24.97
2019-06-15T06:45:12.111Z,25.10
2019-06-15T06:47:42.196Z,24.56
2019-06-15T06:50:12.624Z,24.54
2019-06-15T06:52:42.079Z,24.98
2019-06-15T06:55:12.739Z,24.95
2019-06-15T06:57:52.239Z,25.08
2019-06-15T07:00:16.279Z,24.82
2019-06-15T07:02:45.736Z,25.08
2019-06-15T07:05:15.262Z,24.83
2019-06-15T07:07:44.749Z,24.64
2019-06-15T07:10:16.111Z,24.38
2019-06-15T07:12:45.707Z,24.55
2019-06-15T07:15:15.518Z,24.57
2019-06-15T07:17:44.973Z,24.66
2019-06-15T07:20:15.552Z,24.47
2019-06-15T07:22:45.012Z,24.11
2019-06-15T07:25:14.809Z,24.11
2019-06-15T07:27:44.266Z,23.79
2019-06-15T07:30:13.694Z,23.81
2019-06-15T07:32:43.150Z,23.75
2019-06-15T07:35:12.727Z,23.63
2019-06-15T07:37:42.190Z,23.65
2019-06-15T07:40:11.966Z,23.74
2019-06-15T07:42:41.504Z,23.81
2019-06-15T07:45:11.581Z,23.85
2019-06-15T07:47:41.049Z,23.97
2019-06-15T07:50:10.943Z,24.24
2019-06-15T07:52:40.384Z,24.28
2019-06-15T07:55:10.282Z,24.56
2019-06-15T07:57:39.901Z,24.63
2019-06-15T08:00:10.082Z,24.77
2019-06-15T08:02:39.535Z,25.06
2019-06-15T08:05:09.140Z,25.17
2019-06-15T08:07:38.671Z,25.25
2019-06-15T08:10:08.728Z,25.36
2019-06-15T08:12:38.224Z,25.26
2019-06-15T08:15:09.865Z,25.00
2019-06-15T08:17:39.432Z,24.95
2019-06-15T08:20:12.924Z,25.04
2019-06-15T08:22:42.369Z,24.78
2019-06-15T08:25:12.221Z,24.74
2019-06-15T08:27:41.677Z,25.06
2019-06-15T08:30:13.389Z,24.78
2019-06-15T08:32:42.830Z,25.22
2019-06-15T08:35:12.456Z,25.37
2019-06-15T08:37:41.901Z,25.63
2019-06-15T08:40:11.978Z,25.72
2019-06-15T08:42:41.429Z,25.63
2019-06-15T08:45:10.997Z,25.58
2019-06-15T08:47:40.453Z,25.30
2019-06-15T08:50:10.251Z,25.52
2019-06-15T08:52:39.719Z,25.76
2019-06-15T08:55:09.232Z,25.95
2019-06-15T08:57:40.547Z,25.93
2019-06-15T09:00:12.288Z,26.02
2019-06-15T09:02:41.796Z,25.91
2019-06-15T09:05:11.404Z,25.58
2019-06-15T09:07:40.843Z,25.62
2019-06-15T09:10:10.822Z,25.58
2019-06-15T09:12:40.283Z,25.60
2019-06-15T09:15:10.834Z,25.35
2019-06-15T09:17:40.277Z,25.53
2019-06-15T09:20:12.136Z,25.67
2019-06-15T09:22:41.577Z,25.92
2019-06-15T09:25:11.625Z,26.08
2019-06-15T09:27:41.094Z,25.78
2019-06-15T09:30:10.661Z,25.55
2019-06-15T09:32:40.128Z,25.61
2019-06-15T09:35:09.644Z,25.20
2019-06-15T09:37:39.099Z,24.81
2019-06-15T09:40:09.162Z,25.05
2019-06-15T09:42:38.676Z,25.27
2019-06-15T09:45:08.769Z,25.48
2019-06-15T09:47:38.242Z,25.51
2019-06-15T09:50:08.123Z,25.24
2019-06-15T09:52:37.561Z,25.23
2019-06-15T09:55:08.157Z,25.38
2019-06-15T09:57:37.593Z,24.86
2019-06-15T10:00:08.838Z,25.24
2019-06-15T10:02:39.134Z,25.70
2019-06-15T10:05:09.593Z,25.75
2019-06-15T10:07:39.061Z,25.78
2019-06-15T10:10:09.347Z,26.07
2019-06-15T10:12:38.803Z,26.25
2019-06-15T10:15:10.307Z,26.25
2019-06-15T10:17:39.769Z,26.56
2019-06-15T10:20:10.014Z,26.57
2019-06-15T10:22:39.460Z,26.74
2019-06-15T10:25:09.557Z,26.72
2019-06-15T10:27:38.997Z,26.61
2019-06-15T10:30:10.221Z,26.91
2019-06-15T10:32:39.649Z,27.12
2019-06-15T10:35:09.450Z,27.03
2019-06-15T10:37:38.894Z,26.84
2019-06-15T10:40:09.550Z,26.83
2019-06-15T10:42:39.015Z,26.94
2019-06-15T10:45:09.364Z,27.01
2019-06-15T10:47:38.875Z,27.26
2019-06-15T10:50:09.509Z,27.49
2019-06-15T10:52:39.029Z,27.17
2019-06-15T10:55:08.627Z,27.18
2019-06-15T10:57:38.158Z,27.32
2019-06-15T11:00:11.515Z,27.25
2019-06-15T11:02:41.168Z,27.27
2019-06-15T11:05:12.814Z,27.12
2019-06-15T11:07:42.313Z,27.45
2019-06-15T11:10:15.417Z,27.05
2019-06-15T11:12:46.760Z,26.63
2019-06-15T11:15:16.292Z,26.17
2019-06-15T11:17:45.830Z,26.23
2019-06-15T11:20:15.766Z,26.15
2019-06-15T11:22:45.249Z,25.60
2019-06-15T11:25:14.742Z,25.44
2019-06-15T11:27:44.261Z,25.08
2019-06-15T11:30:14.686Z,25.23
2019-06-15T11:32:44.399Z,25.15
2019-06-15T11:35:14.044Z,24.78
2019-06-15T11:37:43.635Z,24.78
2019-06-15T11:40:13.390Z,24.77
2019-06-15T11:42:42.966Z,24.85
2019-06-15T11:45:12.554Z,25.02
2019-06-15T11:47:42.086Z,25.45
2019-06-15T11:50:12.149Z,25.76
2019-06-15T11:52:41.728Z,26.01
2019-06-15T11:55:11.480Z,26.60
2019-06-15T11:57:41.113Z,26.98
2019-06-15T12:00:11.662Z,27.40
2019-06-15T12:02:41.236Z,27.41
2019-06-15T12:05:10.913Z,27.77
2019-06-15T12:07:40.590Z,27.84
2019-06-15T12:10:10.292Z,28.09
2019-06-15T12:12:39.783Z,27.78
2019-06-15T12:15:09.843Z,27.74
2019-06-15T12:17:39.347Z,28.49
2019-06-15T12:20:10.039Z,27.74
2019-06-15T12:22:39.588Z,27.56
2019-06-15T12:25:09.849Z,27.74
2019-06-15T12:27:39.291Z,27.49
2019-06-15T12:30:11.452Z,27.41
2019-06-15T12:32:40.922Z,27.11
2019-06-15T12:35:11.004Z,27.24
2019-06-15T12:37:40.445Z,26.56
2019-06-15T12:40:11.446Z,26.71
2019-06-15T12:42:40.887Z,26.71
2019-06-15T12:45:10.431Z,26.06
2019-06-15T12:47:39.874Z,26.33
2019-06-15T12:50:09.654Z,26.07
2019-06-15T12:52:39.111Z,25.82
2019-06-15T12:55:08.614Z,25.83
2019-06-15T12:57:38.064Z,26.53
2019-06-15T13:00:09.644Z,26.89
2019-06-15T13:02:39.066Z,26.92
2019-06-15T13:05:09.936Z,27.27
2019-06-15T13:07:39.387Z,26.67
2019-06-15T13:10:09.059Z,27.08
2019-06-15T13:12:38.513Z,27.48
2019-06-15T13:15:09.092Z,27.09
2019-06-15T13:17:38.566Z,27.75
2019-06-15T13:20:08.353Z,28.21
2019-06-15T13:22:37.799Z,27.76
2019-06-15T13:25:09.147Z,28.24
2019-06-15T13:27:38.618Z,28.77
2019-06-15T13:30:09.167Z,28.30
2019-06-15T13:32:38.678Z,28.10
2019-06-15T13:35:08.702Z,28.60
2019-06-15T13:37:41.993Z,28.76
2019-06-15T13:40:09.496Z,27.72
2019-06-15T13:42:38.981Z,27.84
2019-06-15T13:45:09.934Z,27.93
2019-06-15T13:47:39.465Z,27.70
2019-06-15T13:50:10.008Z,27.20
2019-06-15T13:52:39.957Z,27.66
2019-06-15T13:55:10.184Z,27.43
2019-06-15T13:57:39.752Z,26.90
2019-06-15T14:00:09.646Z,26.63
2019-06-15T14:02:39.216Z,26.71
2019-06-15T14:05:10.378Z,26.87
2019-06-15T14:07:39.847Z,27.35
2019-06-15T14:10:09.926Z,27.21
2019-06-15T14:12:39.413Z,28.09
2019-06-15T14:15:09.779Z,28.20
2019-06-15T14:17:40.186Z,28.43
2019-06-15T14:20:10.734Z,29.58
2019-06-15T14:22:40.242Z,31.19
2019-06-15T14:25:10.485Z,28.57
2019-06-15T14:27:39.957Z,29.64
2019-06-15T14:30:10.347Z,30.22
2019-06-15T14:32:39.849Z,29.91
2019-06-15T14:35:10.420Z,30.22
2019-06-15T14:37:39.880Z,29.74
2019-06-15T14:40:09.825Z,29.23
2019-06-15T14:42:39.278Z,29.38
2019-06-15T14:45:09.854Z,28.97
2019-06-15T14:47:39.302Z,29.68
2019-06-15T14:50:09.689Z,30.24
2019-06-15T14:52:39.131Z,30.37
2019-06-15T14:55:09.104Z,29.49
2019-06-15T14:57:38.553Z,29.36
2019-06-15T15:00:09.289Z,28.63
2019-06-15T15:02:38.764Z,30.08
2019-06-15T15:05:08.588Z,32.39
2019-06-15T15:07:38.044Z,33.25
2019-06-15T15:10:09.138Z,34.35
2019-06-15T15:12:41.644Z,33.04
2019-06-15T15:15:09.995Z,31.12
2019-06-15T15:17:39.443Z,30.71
2019-06-15T15:20:09.744Z,29.71
2019-06-15T15:22:39.351Z,29.79
2019-06-15T15:25:09.106Z,31.39
2019-06-15T15:27:38.571Z,31.61
2019-06-15T15:30:11.812Z,30.83
2019-06-15T15:32:41.282Z,30.58
2019-06-15T15:35:10.813Z,30.92
2019-06-15T15:37:40.440Z,31.73
2019-06-15T15:40:10.052Z,33.08
2019-06-15T15:42:39.502Z,34.63
2019-06-15T15:45:09.593Z,34.31
2019-06-15T15:47:39.057Z,34.68
2019-06-15T15:50:08.826Z,34.95
2019-06-15T15:52:38.272Z,32.78
2019-06-15T15:55:08.173Z,32.30
2019-06-15T15:57:37.680Z,30.95
2019-06-15T16:00:08.438Z,30.23
2019-06-15T16:02:47.512Z,30.67
2019-06-15T16:05:10.831Z,30.66
2019-06-15T16:07:40.287Z,32.49
2019-06-15T16:10:09.967Z,34.02
2019-06-15T16:12:39.437Z,34.37
2019-06-15T16:15:09.316Z,32.84
2019-06-15T16:17:38.773Z,34.28
2019-06-15T16:20:17.342Z,34.61
2019-06-15T16:22:48.026Z,34.45
2019-06-15T16:25:18.036Z,33.46
2019-06-15T16:27:47.500Z,32.64
2019-06-15T16:30:48.309Z,31.21
2019-06-15T16:33:04.163Z,29.85
2019-06-15T16:35:33.220Z,31.39
2019-06-15T16:38:02.688Z,32.69
2019-06-15T16:40:40.051Z,33.15
2019-06-15T16:43:09.631Z,34.22
2019-06-15T16:45:39.076Z,34.02
2019-06-15T16:48:08.610Z,34.03
2019-06-15T16:50:38.048Z,33.93
2019-06-15T16:53:07.487Z,34.55
2019-06-15T16:55:37.719Z,34.43
2019-06-15T16:58:07.857Z,33.66
2019-06-15T17:00:37.357Z,34.33
2019-06-15T17:03:19.945Z,36.14
2019-06-15T17:05:38.089Z,36.33
2019-06-15T17:08:07.613Z,36.49
2019-06-15T17:10:41.653Z,35.60
2019-06-15T17:13:11.333Z,36.13
2019-06-15T17:15:41.064Z,37.27
2019-06-15T17:18:11.180Z,36.74
2019-06-15T17:20:49.185Z,34.50
2019-06-15T17:23:18.958Z,33.23
2019-06-15T17:25:48.757Z,34.30
2019-06-15T17:28:18.235Z,33.86
2019-06-15T17:30:47.685Z,33.46
2019-06-15T17:33:17.156Z,33.84
2019-06-15T17:35:58.430Z,33.26
2019-06-15T17:38:17.771Z,33.92
2019-06-15T17:40:47.304Z,34.00
2019-06-15T17:43:16.754Z,33.41
2019-06-15T17:45:46.855Z,33.73
2019-06-15T17:48:17.322Z,34.21
2019-06-15T17:50:47.869Z,34.43
2019-06-15T17:53:17.495Z,33.50
2019-06-15T17:55:46.998Z,32.68
2019-06-15T17:58:17.143Z,32.83
2019-06-15T18:00:48.296Z,31.56
2019-06-15T18:03:17.817Z,30.43
2019-06-15T18:05:48.395Z,28.69
2019-06-15T18:08:18.038Z,28.54
2019-06-15T18:10:48.135Z,27.37
2019-06-15T18:13:17.677Z,27.44
2019-06-15T18:15:47.883Z,27.55
2019-06-15T18:18:17.703Z,27.54
2019-06-15T18:20:47.330Z,27.66
2019-06-15T18:23:17.633Z,27.55
2019-06-15T18:25:47.419Z,27.26
2019-06-15T18:28:17.940Z,26.95
2019-06-15T18:30:48.148Z,26.88
2019-06-15T18:33:19.179Z,26.37
2019-06-15T18:35:48.717Z,26.05
2019-06-15T18:38:18.200Z,25.82
2019-06-15T18:40:47.655Z,25.52
2019-06-15T18:43:17.143Z,25.48
2019-06-15T18:45:47.390Z,25.52
2019-06-15T18:48:17.108Z,25.49
2019-06-15T18:50:47.745Z,25.51
2019-06-15T18:53:17.178Z,25.45
2019-06-15T18:55:47.467Z,25.30
2019-06-15T18:58:17.564Z,25.13
2019-06-15T19:00:47.309Z,25.17
2019-06-15T19:03:17.098Z,25.01
2019-06-15T19:05:47.339Z,24.86
2019-06-15T19:08:17.452Z,24.83
2019-06-15T19:10:47.135Z,24.75
2019-06-15T19:13:16.587Z,24.59
2019-06-15T19:15:46.968Z,24.25
2019-06-15T19:18:17.679Z,24.29
2019-06-15T19:20:47.402Z,24.25
2019-06-15T19:23:16.882Z,24.22
2019-06-15T19:25:46.976Z,24.02
2019-06-15T19:28:16.857Z,23.92
2019-06-15T19:30:47.084Z,23.78
2019-06-15T19:33:16.794Z,23.57
2019-06-15T19:35:46.630Z,23.43
2019-06-15T19:38:16.498Z,23.25
2019-06-15T19:40:46.303Z,23.12
2019-06-15T19:43:16.392Z,22.98
2019-06-15T19:45:46.768Z,22.81
2019-06-15T19:48:17.098Z,22.72
2019-06-15T19:50:46.827Z,22.71
2019-06-15T19:53:17.219Z,22.59
2019-06-15T19:55:47.049Z,22.56
2019-06-15T19:58:16.753Z,22.54
2019-06-15T20:00:46.862Z,22.42
2019-06-15T20:03:16.831Z,22.37
2019-06-15T20:05:46.427Z,22.15
2019-06-15T20:08:17.688Z,22.14
2019-06-15T20:10:47.497Z,22.04
2019-06-15T20:13:16.988Z,21.99
2019-06-15T20:15:47.056Z,21.72
2019-06-15T20:18:17.747Z,21.61
2019-06-15T20:20:47.298Z,21.58
2019-06-15T20:23:16.738Z,21.51
2019-06-15T20:25:47.080Z,21.42
2019-06-15T20:28:16.743Z,21.36
2019-06-15T20:30:47.384Z,21.28
2019-06-15T20:33:16.957Z,21.09
2019-06-15T20:35:47.477Z,20.97
2019-06-15T20:38:17.082Z,20.87
2019-06-15T20:40:47.775Z,20.83
2019-06-15T20:43:17.488Z,20.75
2019-06-15T20:45:48.053Z,20.52
2019-06-15T20:48:17.515Z,20.50
2019-06-15T20:50:47.336Z,20.35
2019-06-15T20:53:17.213Z,20.26
2019-06-15T20:55:46.903Z,20.23
2019-06-15T20:58:17.231Z,20.11
2019-06-15T21:00:47.701Z,19.99
2019-06-15T21:03:17.349Z,20.07
2019-06-15T21:05:47.656Z,20.04
2019-06-15T21:08:17.433Z,19.93
2019-06-15T21:10:46.874Z,19.91
2019-06-15T21:13:17.178Z,19.84
2019-06-15T21:15:47.941Z,19.80
2019-06-15T21:18:17.428Z,19.56
2019-06-15T21:20:47.261Z,19.47
2019-06-15T21:23:17.193Z,19.40
2019-06-15T21:25:47.000Z,19.38
2019-06-15T21:28:17.067Z,19.38
2019-06-15T21:30:47.444Z,19.45
2019-06-15T21:33:16.987Z,19.42
2019-06-15T21:35:52.305Z,19.39
2019-06-15T21:38:17.635Z,19.31
2019-06-15T21:40:47.673Z,19.12
2019-06-15T21:43:17.254Z,19.17
2019-06-15T21:45:46.714Z,19.15
2019-06-15T21:48:16.175Z,18.99
2019-06-15T21:50:47.323Z,18.97
2019-06-15T21:53:16.958Z,18.96
2019-06-15T21:55:47.155Z,18.91
2019-06-15T21:58:16.995Z,18.85
2019-06-15T22:01:21.159Z,18.83
2019-06-15T22:03:50.655Z,18.86
2019-06-15T22:06:20.121Z,18.75
2019-06-15T22:08:49.580Z,18.73
2019-06-15T22:11:19.026Z,18.70
2019-06-15T22:13:48.465Z,18.52
2019-06-15T22:16:17.938Z,18.49
2019-06-15T22:18:47.696Z,18.42
2019-06-15T22:21:17.181Z,18.46
2019-06-15T22:23:47.303Z,18.41
2019-06-15T22:26:17.301Z,18.49
2019-06-15T22:28:47.188Z,18.40
2019-06-15T22:31:17.210Z,18.34
2019-06-15T22:33:47.394Z,18.28
2019-06-15T22:36:24.383Z,18.28
2019-06-15T22:38:48.077Z,18.18
2019-06-15T22:41:17.538Z,18.06
2019-06-15T22:43:46.986Z,17.88
2019-06-15T22:46:16.716Z,17.83
2019-06-15T22:48:47.033Z,17.80
2019-06-15T22:51:17.120Z,17.89
2019-06-15T22:53:47.322Z,17.98
2019-06-15T22:56:17.358Z,17.94
2019-06-15T22:58:46.938Z,17.87
2019-06-15T23:01:17.014Z,17.86
2019-06-15T23:03:46.855Z,17.74
2019-06-15T23:06:16.451Z,17.76
2019-06-15T23:08:47.092Z,17.82
2019-06-15T23:11:17.410Z,17.68
2019-06-15T23:13:47.150Z,17.36
2019-06-15T23:16:16.897Z,17.42
2019-06-15T23:18:46.886Z,17.44
2019-06-15T23:21:17.283Z,17.46
2019-06-15T23:23:47.295Z,17.51
2019-06-15T23:26:16.868Z,17.57
2019-06-15T23:28:46.800Z,17.60
2019-06-15T23:31:16.869Z,17.61
2019-06-15T23:33:46.835Z,17.60
2019-06-15T23:36:18.114Z,17.55
2019-06-15T23:38:47.570Z,17.44
2019-06-15T23:41:17.015Z,17.37
2019-06-15T23:43:46.550Z,17.33
2019-06-15T23:46:16.131Z,17.26
2019-06-15T23:48:47.026Z,17.26
2019-06-15T23:51:17.125Z,17.29
2019-06-15T23:53:46.745Z,17.30
2019-06-15T23:56:16.204Z,17.31
2019-06-15T23:58:46.351Z,17.23
